createdAt,value
2023-02-01T00:00:16.924Z,101104.16
2023-02-01T00:03:20.225Z,101097.81
2023-02-01T00:06:23.341Z,101097.41
2023-02-01T00:09:26.281Z,101088.41
2023-02-01T00:12:29.127Z,101079.69
2023-02-01T00:15:32.110Z,101078.91
2023-02-01T00:18:35.358Z,101079.78
2023-02-01T00:21:38.243Z,101064.34
2023-02-01T00:24:41.448Z,101072.75
2023-02-01T00:27:44.267Z,101066.22
2023-02-01T00:30:47.199Z,101059.56
2023-02-01T00:33:50.357Z,101055.16
2023-02-01T00:36:53.155Z,101064.44
2023-02-01T00:39:56.988Z,101060.41
2023-02-01T00:42:59.939Z,101064.78
2023-02-01T00:46:03.105Z,101069.75
2023-02-01T00:49:06.686Z,101062.59
2023-02-01T00:52:09.518Z,101057.41
2023-02-01T00:55:12.658Z,101046.78
2023-02-01T00:58:16.204Z,101056.03
2023-02-01T01:01:22.566Z,101042.09
2023-02-01T01:04:25.524Z,101053.78
2023-02-01T01:07:29.420Z,101053.50
2023-02-01T01:10:33.602Z,101043.31
2023-02-01T01:13:36.979Z,101048.66
2023-02-01T01:16:40.078Z,101047.00
2023-02-01T01:19:42.877Z,101033.75
2023-02-01T01:22:45.665Z,101050.16
2023-02-01T01:25:48.725Z,101049.50
2023-02-01T01:28:52.164Z,101049.50
2023-02-01T01:31:55.371Z,101055.03
2023-02-01T01:34:58.210Z,101045.34
2023-02-01T01:38:01.851Z,101038.09
2023-02-01T01:41:05.214Z,101039.03
2023-02-01T01:44:46.564Z,101021.88
2023-02-01T01:47:56.571Z,101023.44
2023-02-01T01:51:08.018Z,101032.75
2023-02-01T01:54:25.750Z,101041.81
2023-02-01T01:57:36.830Z,101034.28
2023-02-01T02:00:40.496Z,101030.03
2023-02-01T02:03:48.826Z,101034.56
2023-02-01T02:06:58.658Z,101041.59
2023-02-01T02:10:03.132Z,101048.78
2023-02-01T02:13:05.981Z,101029.34
2023-02-01T02:16:32.946Z,101020.31
2023-02-01T02:19:45.017Z,101010.44
2023-02-01T02:23:03.675Z,101014.38
2023-02-01T02:26:11.521Z,101006.28
2023-02-01T02:29:24.683Z,101005.47
2023-02-01T02:33:04.971Z,101008.59
2023-02-01T02:36:21.384Z,101013.00
2023-02-01T02:40:00.864Z,101017.69
2023-02-01T02:43:42.173Z,101022.00
2023-02-01T02:47:08.623Z,101013.88
2023-02-01T02:50:35.348Z,101018.16
2023-02-01T02:54:08.399Z,101002.75
2023-02-01T02:57:42.394Z,100995.84
2023-02-01T03:01:04.783Z,100969.25
2023-02-01T03:04:13.071Z,100968.03
2023-02-01T03:07:47.885Z,100989.09
2023-02-01T03:11:10.618Z,100981.53
2023-02-01T03:14:16.657Z,100984.97
2023-02-01T03:17:27.204Z,100981.38
2023-02-01T03:20:31.471Z,100986.44
2023-02-01T03:23:38.283Z,100992.06
2023-02-01T03:26:50.416Z,100989.28
2023-02-01T03:30:07.350Z,100990.78
2023-02-01T03:33:24.251Z,100980.84
2023-02-01T03:36:32.744Z,100975.19
2023-02-01T03:39:41.787Z,100973.91
2023-02-01T03:42:55.513Z,100980.03
2023-02-01T03:46:05.328Z,100998.31
2023-02-01T03:49:11.731Z,100980.00
2023-02-01T03:52:22.279Z,100979.47
2023-02-01T03:55:28.516Z,100983.16
2023-02-01T03:58:31.367Z,100975.78
2023-02-01T04:01:34.335Z,100976.31
2023-02-01T04:04:37.712Z,100992.84
2023-02-01T04:07:41.133Z,100999.72
2023-02-01T04:10:45.131Z,100995.69
2023-02-01T04:13:47.905Z,100998.03
2023-02-01T04:16:50.749Z,100996.66
2023-02-01T04:19:55.473Z,101009.63
2023-02-01T04:22:58.626Z,101014.03
2023-02-01T04:26:03.232Z,101014.56
2023-02-01T04:29:06.400Z,101009.56
2023-02-01T04:32:09.428Z,101016.16
2023-02-01T04:35:13.010Z,101023.44
2023-02-01T04:38:15.823Z,101023.72
2023-02-01T04:41:19.976Z,101018.19
2023-02-01T04:44:22.888Z,101034.81
2023-02-01T04:47:30.524Z,101038.34
2023-02-01T04:50:33.403Z,101026.22
2023-02-01T04:53:36.152Z,101033.13
2023-02-01T04:56:39.303Z,101040.25
2023-02-01T04:59:42.074Z,101044.22
2023-02-01T05:02:45.240Z,101052.91
2023-02-01T05:05:51.280Z,101049.63
2023-02-01T05:08:54.309Z,101058.97
2023-02-01T05:12:15.519Z,101049.22
2023-02-01T05:15:18.667Z,101036.66
2023-02-01T05:18:21.503Z,101046.16
2023-02-01T05:21:24.363Z,101043.25
2023-02-01T05:24:28.243Z,101040.41
2023-02-01T05:27:31.890Z,101034.03
2023-02-01T05:30:36.383Z,101042.41
2023-02-01T05:33:39.252Z,101041.38
2023-02-01T05:36:42.437Z,101045.78
2023-02-01T05:39:45.336Z,101038.44
2023-02-01T05:42:48.187Z,101033.41
2023-02-01T05:45:53.362Z,101045.16
2023-02-01T05:48:56.340Z,101043.78
2023-02-01T05:52:00.528Z,101034.38
2023-02-01T05:55:03.787Z,101042.94
2023-02-01T05:58:06.871Z,101052.38
2023-02-01T06:01:09.794Z,101063.38
2023-02-01T06:04:12.816Z,101057.69
2023-02-01T06:07:15.761Z,101064.81
2023-02-01T06:10:19.717Z,101069.25
2023-02-01T06:13:22.824Z,101067.44
2023-02-01T06:16:25.806Z,101078.38
2023-02-01T06:19:28.571Z,101079.84
2023-02-01T06:22:31.381Z,101086.00
2023-02-01T06:25:34.205Z,101097.31
2023-02-01T06:28:37.118Z,101105.59
2023-02-01T06:31:40.206Z,101101.31
2023-02-01T06:34:43.090Z,101118.69
2023-02-01T06:37:46.523Z,101101.72
2023-02-01T06:40:56.720Z,101092.69
2023-02-01T06:43:59.743Z,101086.97
2023-02-01T06:47:04.054Z,101090.06
2023-02-01T06:50:08.905Z,101098.47
2023-02-01T06:53:11.801Z,101093.31
2023-02-01T06:56:14.530Z,101098.63
2023-02-01T06:59:17.525Z,101109.56
2023-02-01T07:02:20.791Z,101097.19
2023-02-01T07:05:23.797Z,101089.19
2023-02-01T07:08:29.547Z,101080.28
2023-02-01T07:11:33.140Z,101092.34
2023-02-01T07:14:36.246Z,101092.84
2023-02-01T07:17:39.110Z,101088.97
2023-02-01T07:20:42.422Z,101080.50
2023-02-01T07:23:45.258Z,101079.97
2023-02-01T07:26:49.187Z,101089.34
2023-02-01T07:29:52.385Z,101102.16
2023-02-01T07:32:55.404Z,101108.34
2023-02-01T07:35:58.441Z,101115.88
2023-02-01T07:39:01.616Z,101121.41
2023-02-01T07:42:04.466Z,101122.38
2023-02-01T07:45:20.343Z,101133.03
2023-02-01T07:48:25.773Z,101117.66
2023-02-01T07:51:28.587Z,101099.81
2023-02-01T07:54:31.400Z,101096.19
2023-02-01T07:57:34.144Z,101110.75
2023-02-01T08:00:57.239Z,101122.56
2023-02-01T08:04:04.177Z,101133.41
2023-02-01T08:07:06.891Z,101129.53
2023-02-01T08:10:12.313Z,101131.03
2023-02-01T08:13:15.469Z,101128.47
2023-02-01T08:16:20.134Z,101128.84
2023-02-01T08:19:22.938Z,101124.19
2023-02-01T08:22:25.728Z,101122.75
2023-02-01T08:25:29.468Z,101118.78
2023-02-01T08:28:33.121Z,101115.53
2023-02-01T08:31:36.271Z,101109.31
2023-02-01T08:34:39.123Z,101107.03
2023-02-01T08:37:42.011Z,101103.44
2023-02-01T08:40:45.159Z,101102.78
2023-02-01T08:43:49.141Z,101094.94
2023-02-01T08:46:52.162Z,101098.22
2023-02-01T08:49:55.361Z,101103.34
2023-02-01T08:52:58.377Z,101103.00
2023-02-01T08:56:02.024Z,101108.47
2023-02-01T08:59:04.945Z,101105.19
2023-02-01T09:02:15.461Z,101111.78
2023-02-01T09:05:20.546Z,101114.22
2023-02-01T09:08:23.443Z,101107.00
2023-02-01T09:11:26.963Z,101097.28
2023-02-01T09:14:30.263Z,101110.47
2023-02-01T09:17:33.054Z,101112.09
2023-02-01T09:20:38.286Z,101119.84
2023-02-01T09:23:41.305Z,101115.75
2023-02-01T09:26:44.265Z,101118.19
2023-02-01T09:29:51.126Z,101113.63
2023-02-01T09:32:53.994Z,101112.94
2023-02-01T09:36:01.784Z,101117.56
2023-02-01T09:39:04.976Z,101115.59
2023-02-01T09:42:36.874Z,101113.13
2023-02-01T09:45:58.250Z,101112.91
2023-02-01T09:49:28.150Z,101111.78
2023-02-01T09:52:47.156Z,101106.16
2023-02-01T09:55:52.918Z,101096.75
2023-02-01T09:59:28.519Z,101086.66
2023-02-01T10:02:33.547Z,101079.53
2023-02-01T10:06:14.697Z,101076.88
2023-02-01T10:09:35.793Z,101078.69
2023-02-01T10:13:03.021Z,101074.19
2023-02-01T10:16:14.235Z,101060.13
2023-02-01T10:19:45.129Z,101055.56
2023-02-01T10:23:23.125Z,101040.53
2023-02-01T10:26:34.480Z,101049.13
2023-02-01T10:29:41.127Z,101049.31
2023-02-01T10:32:44.228Z,101040.69
2023-02-01T10:35:51.112Z,101032.91
2023-02-01T10:38:55.076Z,101042.91
2023-02-01T10:41:58.204Z,101030.19
2023-02-01T10:45:05.056Z,101015.63
2023-02-01T10:48:12.995Z,101008.75
2023-02-01T10:51:24.893Z,101007.22
2023-02-01T10:54:41.749Z,101008.00
2023-02-01T10:57:57.788Z,100995.34
2023-02-01T11:01:19.740Z,101000.41
2023-02-01T11:04:27.639Z,100997.72
2023-02-01T11:07:31.462Z,100982.72
2023-02-01T11:10:42.439Z,100973.78
2023-02-01T11:13:45.567Z,100963.63
2023-02-01T11:16:51.455Z,100966.72
2023-02-01T11:20:21.632Z,100958.28
2023-02-01T11:23:27.457Z,100942.00
2023-02-01T11:26:30.692Z,100943.53
2023-02-01T11:29:40.828Z,100934.91
2023-02-01T11:32:43.707Z,100932.44
2023-02-01T11:35:49.264Z,100924.06
2023-02-01T11:39:12.511Z,100918.63
2023-02-01T11:42:19.164Z,100913.72
2023-02-01T11:45:36.053Z,100912.72
2023-02-01T11:48:38.936Z,100910.47
2023-02-01T11:52:06.408Z,100899.09
2023-02-01T11:55:33.657Z,100896.22
2023-02-01T11:58:52.264Z,100892.88
2023-02-01T12:02:04.362Z,100885.97
2023-02-01T12:05:47.534Z,100881.81
2023-02-01T12:08:53.613Z,100868.16
2023-02-01T12:12:30.348Z,100868.44
2023-02-01T12:15:48.832Z,100864.56
2023-02-01T12:18:58.453Z,100868.97
2023-02-01T12:22:25.272Z,100864.31
2023-02-01T12:25:58.332Z,100861.66
2023-02-01T12:29:24.794Z,100851.03
2023-02-01T12:32:36.465Z,100865.16
2023-02-01T12:35:57.431Z,100861.34
2023-02-01T12:39:27.932Z,100850.41
2023-02-01T12:42:39.965Z,100851.28
2023-02-01T12:45:57.269Z,100834.97
2023-02-01T12:49:18.459Z,100837.19
2023-02-01T12:52:28.640Z,100838.75
2023-02-01T12:55:40.252Z,100831.31
2023-02-01T12:58:51.040Z,100828.56
2023-02-01T13:02:00.061Z,100822.69
2023-02-01T13:05:14.564Z,100823.78
2023-02-01T13:08:42.833Z,100828.75
2023-02-01T13:11:48.303Z,100821.28
2023-02-01T13:14:57.708Z,100831.13
2023-02-01T13:18:06.069Z,100810.94
2023-02-01T13:21:19.690Z,100809.66
2023-02-01T13:24:27.287Z,100803.88
2023-02-01T13:27:32.183Z,100803.22
2023-02-01T13:30:53.142Z,100811.06
2023-02-01T13:34:17.842Z,100805.91
2023-02-01T13:37:35.888Z,100817.47
2023-02-01T13:41:09.428Z,100812.75
2023-02-01T13:44:20.607Z,100813.75
2023-02-01T13:47:44.998Z,100820.94
2023-02-01T13:50:53.213Z,100821.56
2023-02-01T13:53:56.009Z,100817.81
2023-02-01T13:57:01.310Z,100818.56
2023-02-01T14:00:24.844Z,100810.47
2023-02-01T14:03:48.048Z,100800.44
2023-02-01T14:06:54.239Z,100794.69
2023-02-01T14:09:57.024Z,100796.59
2023-02-01T14:13:13.534Z,100796.88
2023-02-01T14:16:18.045Z,100790.78
2023-02-01T14:19:30.087Z,100780.53
2023-02-01T14:22:35.514Z,100779.72
2023-02-01T14:25:38.993Z,100768.25
2023-02-01T14:28:55.362Z,100754.13
2023-02-01T14:32:13.677Z,100742.75
2023-02-01T14:35:23.330Z,100747.69
2023-02-01T14:38:26.285Z,100735.34
2023-02-01T14:41:33.772Z,100741.69
2023-02-01T14:44:38.219Z,100727.56
2023-02-01T14:47:41.889Z,100736.84
2023-02-01T14:50:48.564Z,100736.41
2023-02-01T14:53:52.304Z,100731.41
2023-02-01T14:56:55.867Z,100747.22
2023-02-01T15:00:21.664Z,100758.66
2023-02-01T15:03:27.580Z,100785.72
2023-02-01T15:06:50.104Z,100824.25
2023-02-01T15:09:58.149Z,100883.72
2023-02-01T15:13:02.346Z,100935.41
2023-02-01T15:16:13.447Z,100941.50
2023-02-01T15:19:16.272Z,100945.09
2023-02-01T15:22:20.354Z,100949.50
2023-02-01T15:25:26.776Z,100948.69
2023-02-01T15:28:30.004Z,100961.34
2023-02-01T15:31:48.244Z,100969.03
2023-02-01T15:34:51.385Z,100969.91
2023-02-01T15:37:54.243Z,100968.91
2023-02-01T15:41:06.806Z,100972.25
2023-02-01T15:44:25.033Z,100984.00
2023-02-01T15:47:31.873Z,100999.34
2023-02-01T15:50:34.765Z,101008.25
2023-02-01T15:53:37.549Z,101009.59
2023-02-01T15:56:43.130Z,101013.56
2023-02-01T15:59:46.566Z,101013.88
2023-02-01T16:03:00.627Z,101021.47
2023-02-01T16:06:09.983Z,101025.09
2023-02-01T16:09:15.219Z,101007.34
2023-02-01T16:12:44.209Z,101014.56
2023-02-01T16:15:47.899Z,101018.19
2023-02-01T16:18:51.101Z,101026.25
2023-02-01T16:21:53.897Z,101036.28
2023-02-01T16:24:56.914Z,101025.09
2023-02-01T16:27:59.747Z,101016.06
2023-02-01T16:31:03.245Z,101024.28
2023-02-01T16:34:07.523Z,101018.53
2023-02-01T16:37:14.706Z,100988.94
2023-02-01T16:40:19.654Z,101004.56
2023-02-01T16:43:24.475Z,101011.28
2023-02-01T16:46:33.484Z,100998.16
2023-02-01T16:49:36.335Z,100972.66
2023-02-01T16:52:40.718Z,100968.03
2023-02-01T16:55:44.731Z,100953.09
2023-02-01T16:58:48.415Z,100979.06
2023-02-01T17:01:51.385Z,100981.84
2023-02-01T17:04:54.316Z,100991.19
2023-02-01T17:08:05.080Z,100982.59
2023-02-01T17:11:08.550Z,100992.28
2023-02-01T17:14:17.083Z,100997.59
2023-02-01T17:17:36.953Z,100999.53
2023-02-01T17:20:42.829Z,101001.22
2023-02-01T17:23:46.868Z,101009.75
2023-02-01T17:26:51.679Z,101003.53
2023-02-01T17:29:57.311Z,101008.69
2023-02-01T17:33:10.226Z,101010.97
2023-02-01T17:36:20.075Z,101004.78
2023-02-01T17:39:41.952Z,100997.38
2023-02-01T17:42:45.224Z,101013.16
2023-02-01T17:46:01.379Z,101008.09
2023-02-01T17:49:05.872Z,101010.97
2023-02-01T17:52:17.228Z,100998.47
2023-02-01T17:55:23.694Z,100989.34
2023-02-01T17:58:26.956Z,100982.22
2023-02-01T18:01:29.997Z,100976.91
2023-02-01T18:04:32.975Z,100981.03
2023-02-01T18:07:39.190Z,100980.34
2023-02-01T18:10:42.436Z,100976.69
2023-02-01T18:13:47.205Z,100975.66
2023-02-01T18:16:50.241Z,100988.38
2023-02-01T18:19:54.314Z,100977.81
2023-02-01T18:22:57.597Z,100976.19
2023-02-01T18:26:01.384Z,100976.00
2023-02-01T18:29:04.418Z,100980.03
2023-02-01T18:32:10.005Z,100988.28
2023-02-01T18:35:22.927Z,100976.94
2023-02-01T18:38:26.250Z,100977.41
2023-02-01T18:41:29.419Z,100979.41
2023-02-01T18:44:32.569Z,100977.25
2023-02-01T18:47:35.644Z,100975.91
2023-02-01T18:50:41.003Z,100968.19
2023-02-01T18:53:44.596Z,100976.28
2023-02-01T18:56:48.670Z,100975.69
2023-02-01T18:59:51.550Z,100972.13
2023-02-01T19:02:54.948Z,100971.56
2023-02-01T19:05:58.247Z,100976.13
2023-02-01T19:09:01.359Z,100975.19
2023-02-01T19:12:05.175Z,100973.13
2023-02-01T19:15:13.025Z,100965.97
2023-02-01T19:18:20.334Z,100966.94
2023-02-01T19:21:23.494Z,100974.22
2023-02-01T19:24:28.196Z,100975.91
2023-02-01T19:27:31.015Z,100965.84
2023-02-01T19:30:34.087Z,100962.84
2023-02-01T19:33:37.308Z,100964.94
2023-02-01T19:36:43.663Z,100954.84
2023-02-01T19:39:46.662Z,100952.66
2023-02-01T19:42:52.424Z,100949.09
2023-02-01T19:45:57.626Z,100949.66
2023-02-01T19:49:00.796Z,100949.78
2023-02-01T19:52:04.522Z,100956.13
2023-02-01T19:55:07.617Z,100967.13
2023-02-01T19:58:10.670Z,100964.00
2023-02-01T20:01:13.424Z,100971.97
2023-02-01T20:04:17.439Z,100972.06
2023-02-01T20:07:20.958Z,100972.06
2023-02-01T20:10:24.578Z,100971.13
2023-02-01T20:13:27.717Z,100965.47
2023-02-01T20:16:30.921Z,100967.53
2023-02-01T20:19:34.493Z,100960.63
2023-02-01T20:22:37.670Z,100950.31
2023-02-01T20:25:41.584Z,100942.50
2023-02-01T20:28:44.783Z,100939.16
2023-02-01T20:31:47.820Z,100944.44
2023-02-01T20:34:53.479Z,100940.28
2023-02-01T20:38:02.005Z,100953.31
2023-02-01T20:41:08.019Z,100956.81
2023-02-01T20:44:11.441Z,100954.06
2023-02-01T20:47:14.530Z,100972.88
2023-02-01T20:50:17.941Z,100984.00
2023-02-01T20:53:26.601Z,100996.94
2023-02-01T20:56:30.226Z,100973.59
2023-02-01T20:59:33.485Z,100970.59
2023-02-01T21:02:36.764Z,100957.66
2023-02-01T21:05:42.885Z,100961.66
2023-02-01T21:08:45.863Z,100960.38
2023-02-01T21:11:48.695Z,100967.13
2023-02-01T21:14:51.793Z,100997.53
2023-02-01T21:17:54.923Z,100991.72
2023-02-01T21:20:58.344Z,100987.63
2023-02-01T21:24:01.278Z,100976.06
2023-02-01T21:27:04.624Z,100975.47
2023-02-01T21:30:07.954Z,100983.59
2023-02-01T21:33:10.803Z,100987.31
2023-02-01T21:36:19.806Z,100979.75
2023-02-01T21:39:22.603Z,100987.31
2023-02-01T21:42:26.739Z,100997.06
2023-02-01T21:45:29.569Z,100994.03
2023-02-01T21:49:04.948Z,100983.09
2023-02-01T21:51:55.736Z,100977.19
2023-02-01T21:54:59.884Z,100987.94
2023-02-01T21:58:02.715Z,100994.94
2023-02-01T22:01:05.543Z,101007.88
2023-02-01T22:04:10.331Z,101006.63
2023-02-01T22:07:13.156Z,100992.72
2023-02-01T22:10:16.036Z,100989.22
2023-02-01T22:13:18.925Z,100994.91
2023-02-01T22:16:22.527Z,100982.09
2023-02-01T22:19:25.427Z,100981.44
2023-02-01T22:22:28.238Z,100990.22
2023-02-01T22:25:32.031Z,101010.09
2023-02-01T22:28:39.618Z,101007.19
2023-02-01T22:31:43.819Z,100977.25
2023-02-01T22:34:46.761Z,100974.94
2023-02-01T22:37:49.489Z,100977.84
2023-02-01T22:41:00.760Z,100985.59
2023-02-01T22:44:03.509Z,100983.97
2023-02-01T22:47:06.357Z,100969.00
2023-02-01T22:50:09.671Z,100958.13
2023-02-01T22:53:13.081Z,100960.66
2023-02-01T22:56:17.229Z,100941.97
2023-02-01T22:59:20.097Z,100936.63
2023-02-01T23:02:22.965Z,100929.63
2023-02-01T23:05:26.706Z,100932.22
2023-02-01T23:08:29.665Z,100926.06
2023-02-01T23:11:32.679Z,100940.50
2023-02-01T23:14:57.566Z,100938.56
2023-02-01T23:18:00.299Z,100928.38
2023-02-01T23:21:11.683Z,100932.34
2023-02-01T23:24:14.444Z,100924.09
2023-02-01T23:27:17.293Z,100931.50
2023-02-01T23:30:20.221Z,100940.59
2023-02-01T23:33:27.740Z,100914.63
2023-02-01T23:36:32.907Z,100907.63
2023-02-01T23:39:35.898Z,100903.66
2023-02-01T23:42:39.378Z,100916.56
2023-02-01T23:45:42.105Z,100904.06
2023-02-01T23:48:46.249Z,100904.06
2023-02-01T23:51:53.019Z,100897.06
2023-02-01T23:54:55.796Z,100897.34
2023-02-01T23:57:58.519Z,100880.56
